sensor_id;sensor_type;location;lat;lon;timestamp;pressure;altitude;pressure_sealevel;temperature
40045;BMP280;25735;48.122;11.422;2023-02-11T00:00:47;97067.69;;;-0.99
40045;BMP280;25735;48.122;11.422;2023-02-11T00:03:13;97062.25;;;-1.06
40045;BMP280;25735;48.122;11.422;2023-02-11T00:05:38;97066.81;;;-1.06
40045;BMP280;25735;48.122;11.422;2023-02-11T00:08:03;97065.13;;;-1.14
40045;BMP280;25735;48.122;11.422;2023-02-11T00:10:28;97070.47;;;-1.14
40045;BMP280;25735;48.122;11.422;2023-02-11T00:12:54;97069.81;;;-1.08
40045;BMP280;25735;48.122;11.422;2023-02-11T00:15:19;97068.66;;;-1.10
40045;BMP280;25735;48.122;11.422;2023-02-11T00:17:45;97065.94;;;-1.13
40045;BMP280;25735;48.122;11.422;2023-02-11T00:20:10;97062.78;;;-1.19
40045;BMP280;25735;48.122;11.422;2023-02-11T00:22:35;97069.19;;;-1.23
40045;BMP280;25735;48.122;11.422;2023-02-11T00:25:00;97064.50;;;-1.30
40045;BMP280;25735;48.122;11.422;2023-02-11T00:27:26;97067.19;;;-1.30
40045;BMP280;25735;48.122;11.422;2023-02-11T00:29:51;97071.88;;;-1.23
40045;BMP280;25735;48.122;11.422;2023-02-11T00:32:16;97066.88;;;-1.25
40045;BMP280;25735;48.122;11.422;2023-02-11T00:34:42;97060.41;;;-1.24
40045;BMP280;25735;48.122;11.422;2023-02-11T00:37:07;97058.03;;;-1.29
40045;BMP280;25735;48.122;11.422;2023-02-11T00:39:32;97050.03;;;-1.29
40045;BMP280;25735;48.122;11.422;2023-02-11T00:41:58;97039.75;;;-1.27
40045;BMP280;25735;48.122;11.422;2023-02-11T00:44:23;97037.41;;;-1.32
40045;BMP280;25735;48.122;11.422;2023-02-11T00:46:48;97046.13;;;-1.35
40045;BMP280;25735;48.122;11.422;2023-02-11T00:49:13;97035.44;;;-1.35
40045;BMP280;25735;48.122;11.422;2023-02-11T00:51:39;97041.56;;;-1.34
40045;BMP280;25735;48.122;11.422;2023-02-11T00:54:04;97038.94;;;-1.31
40045;BMP280;25735;48.122;11.422;2023-02-11T00:56:29;97029.69;;;-1.37
40045;BMP280;25735;48.122;11.422;2023-02-11T00:58:55;97030.22;;;-1.28
40045;BMP280;25735;48.122;11.422;2023-02-11T01:01:20;97030.88;;;-1.34
40045;BMP280;25735;48.122;11.422;2023-02-11T01:03:46;97035.81;;;-1.36
40045;BMP280;25735;48.122;11.422;2023-02-11T01:06:11;97041.31;;;-1.26
40045;BMP280;25735;48.122;11.422;2023-02-11T01:08:38;97041.28;;;-1.29
40045;BMP280;25735;48.122;11.422;2023-02-11T01:11:06;97043.16;;;-1.30
40045;BMP280;25735;48.122;11.422;2023-02-11T01:13:33;97032.34;;;-1.37
40045;BMP280;25735;48.122;11.422;2023-02-11T01:15:59;97038.75;;;-1.41
40045;BMP280;25735;48.122;11.422;2023-02-11T01:18:24;97044.09;;;-1.41
40045;BMP280;25735;48.122;11.422;2023-02-11T01:20:51;97043.34;;;-1.41
40045;BMP280;25735;48.122;11.422;2023-02-11T01:23:16;97031.25;;;-1.36
40045;BMP280;25735;48.122;11.422;2023-02-11T01:25:41;97035.75;;;-1.40
40045;BMP280;25735;48.122;11.422;2023-02-11T01:28:18;97036.88;;;-1.41
40045;BMP280;25735;48.122;11.422;2023-02-11T01:30:43;97032.94;;;-1.46
40045;BMP280;25735;48.122;11.422;2023-02-11T01:33:09;97032.94;;;-1.46
40045;BMP280;25735;48.122;11.422;2023-02-11T01:35:34;97033.78;;;-1.42
40045;BMP280;25735;48.122;11.422;2023-02-11T01:37:59;97028.88;;;-1.41
40045;BMP280;25735;48.122;11.422;2023-02-11T01:40:24;97030.06;;;-1.38
40045;BMP280;25735;48.122;11.422;2023-02-11T01:42:49;97036.16;;;-1.38
40045;BMP280;25735;48.122;11.422;2023-02-11T01:48:31;97038.22;;;-1.28
40045;BMP280;25735;48.122;11.422;2023-02-11T01:51:03;97043.56;;;-1.28
40045;BMP280;25735;48.122;11.422;2023-02-11T01:53:31;97031.69;;;-1.30
40045;BMP280;25735;48.122;11.422;2023-02-11T01:56:15;97032.78;;;-1.35
40045;BMP280;25735;48.122;11.422;2023-02-11T01:59:06;97028.91;;;-1.37
40045;BMP280;25735;48.122;11.422;2023-02-11T02:01:33;97035.38;;;-1.38
40045;BMP280;25735;48.122;11.422;2023-02-11T02:04:00;97034.97;;;-1.40
40045;BMP280;25735;48.122;11.422;2023-02-11T02:06:51;97038.81;;;-1.38
40045;BMP280;25735;48.122;11.422;2023-02-11T02:09:21;97037.56;;;-1.43
40045;BMP280;25735;48.122;11.422;2023-02-11T02:11:47;97021.88;;;-1.48
40045;BMP280;25735;48.122;11.422;2023-02-11T02:14:13;97025.13;;;-1.58
40045;BMP280;25735;48.122;11.422;2023-02-11T02:16:38;97025.66;;;-1.49
40045;BMP280;25735;48.122;11.422;2023-02-11T02:22:32;97018.91;;;-1.43
40045;BMP280;25735;48.122;11.422;2023-02-11T02:30:59;96996.84;;;-1.41
40045;BMP280;25735;48.122;11.422;2023-02-11T02:33:10;96992.13;;;-1.50
40045;BMP280;25735;48.122;11.422;2023-02-11T02:35:47;96991.56;;;-1.59
40045;BMP280;25735;48.122;11.422;2023-02-11T02:38:22;96994.78;;;-1.50
40045;BMP280;25735;48.122;11.422;2023-02-11T02:40:54;96973.75;;;-1.55
40045;BMP280;25735;48.122;11.422;2023-02-11T02:43:23;96969.19;;;-1.55
40045;BMP280;25735;48.122;11.422;2023-02-11T02:45:49;96976.59;;;-1.67
40045;BMP280;25735;48.122;11.422;2023-02-11T02:50:55;96978.63;;;-1.61
40045;BMP280;25735;48.122;11.422;2023-02-11T02:59:17;96951.84;;;-1.68
40045;BMP280;25735;48.122;11.422;2023-02-11T03:04:36;96953.84;;;-1.61
40045;BMP280;25735;48.122;11.422;2023-02-11T03:09:55;96954.38;;;-1.74
40045;BMP280;25735;48.122;11.422;2023-02-11T03:12:23;96948.09;;;-1.85
40045;BMP280;25735;48.122;11.422;2023-02-11T03:14:51;96950.41;;;-1.84
40045;BMP280;25735;48.122;11.422;2023-02-11T03:17:17;96947.44;;;-1.79
40045;BMP280;25735;48.122;11.422;2023-02-11T03:19:44;96940.81;;;-1.66
40045;BMP280;25735;48.122;11.422;2023-02-11T03:22:16;96932.09;;;-1.63
40045;BMP280;25735;48.122;11.422;2023-02-11T03:24:41;96935.19;;;-1.61
40045;BMP280;25735;48.122;11.422;2023-02-11T03:27:19;96931.81;;;-1.58
40045;BMP280;25735;48.122;11.422;2023-02-11T03:29:58;96933.34;;;-1.57
40045;BMP280;25735;48.122;11.422;2023-02-11T03:32:28;96933.06;;;-1.52
40045;BMP280;25735;48.122;11.422;2023-02-11T03:35:03;96913.59;;;-1.53
40045;BMP280;25735;48.122;11.422;2023-02-11T03:37:42;96934.06;;;-1.60
40045;BMP280;25735;48.122;11.422;2023-02-11T03:40:12;96945.44;;;-1.63
40045;BMP280;25735;48.122;11.422;2023-02-11T03:42:45;96936.31;;;-1.62
40045;BMP280;25735;48.122;11.422;2023-02-11T03:45:15;96938.69;;;-1.57
40045;BMP280;25735;48.122;11.422;2023-02-11T03:47:46;96934.47;;;-1.58
40045;BMP280;25735;48.122;11.422;2023-02-11T03:50:14;96940.09;;;-1.63
40045;BMP280;25735;48.122;11.422;2023-02-11T03:52:40;96934.13;;;-1.57
40045;BMP280;25735;48.122;11.422;2023-02-11T03:55:10;96935.06;;;-1.46
40045;BMP280;25735;48.122;11.422;2023-02-11T03:57:36;96942.28;;;-1.46
40045;BMP280;25735;48.122;11.422;2023-02-11T04:00:03;96948.19;;;-1.34
40045;BMP280;25735;48.122;11.422;2023-02-11T04:02:31;96948.78;;;-1.44
40045;BMP280;25735;48.122;11.422;2023-02-11T04:04:57;96951.72;;;-1.52
40045;BMP280;25735;48.122;11.422;2023-02-11T04:07:23;96942.16;;;-1.53
40045;BMP280;25735;48.122;11.422;2023-02-11T04:09:49;96936.44;;;-1.55
40045;BMP280;25735;48.122;11.422;2023-02-11T04:12:14;96931.06;;;-1.59
40045;BMP280;25735;48.122;11.422;2023-02-11T04:14:39;96943.25;;;-1.58
40045;BMP280;25735;48.122;11.422;2023-02-11T04:17:05;96945.53;;;-1.56
40045;BMP280;25735;48.122;11.422;2023-02-11T04:19:30;96952.13;;;-1.50
40045;BMP280;25735;48.122;11.422;2023-02-11T04:21:55;96947.22;;;-1.48
40045;BMP280;25735;48.122;11.422;2023-02-11T04:24:21;96957.78;;;-1.55
40045;BMP280;25735;48.122;11.422;2023-02-11T04:26:46;96953.25;;;-1.51
40045;BMP280;25735;48.122;11.422;2023-02-11T04:29:11;96939.09;;;-1.55
40045;BMP280;25735;48.122;11.422;2023-02-11T04:31:36;96953.53;;;-1.56
40045;BMP280;25735;48.122;11.422;2023-02-11T04:34:02;96957.81;;;-1.52
40045;BMP280;25735;48.122;11.422;2023-02-11T04:36:27;96970.66;;;-1.57
40045;BMP280;25735;48.122;11.422;2023-02-11T04:38:52;96966.16;;;-1.53
40045;BMP280;25735;48.122;11.422;2023-02-11T04:41:17;96978.13;;;-1.66
40045;BMP280;25735;48.122;11.422;2023-02-11T04:43:43;96988.84;;;-1.85
40045;BMP280;25735;48.122;11.422;2023-02-11T04:46:08;96985.97;;;-1.95
40045;BMP280;25735;48.122;11.422;2023-02-11T04:48:33;96984.09;;;-1.95
40045;BMP280;25735;48.122;11.422;2023-02-11T04:51:00;96987.34;;;-2.04
40045;BMP280;25735;48.122;11.422;2023-02-11T04:53:25;96985.72;;;-2.09
40045;BMP280;25735;48.122;11.422;2023-02-11T04:55:50;96999.81;;;-2.27
40045;BMP280;25735;48.122;11.422;2023-02-11T04:58:17;96991.41;;;-2.29
40045;BMP280;25735;48.122;11.422;2023-02-11T05:00:43;96997.56;;;-2.44
40045;BMP280;25735;48.122;11.422;2023-02-11T05:03:08;96996.59;;;-2.36
40045;BMP280;25735;48.122;11.422;2023-02-11T05:05:33;97004.97;;;-2.34
40045;BMP280;25735;48.122;11.422;2023-02-11T05:07:58;97002.69;;;-2.35
40045;BMP280;25735;48.122;11.422;2023-02-11T05:10:24;96998.97;;;-2.50
40045;BMP280;25735;48.122;11.422;2023-02-11T05:12:49;96991.41;;;-2.48
40045;BMP280;25735;48.122;11.422;2023-02-11T05:15:14;96993.88;;;-2.73
40045;BMP280;25735;48.122;11.422;2023-02-11T05:17:40;97002.97;;;-2.59
40045;BMP280;25735;48.122;11.422;2023-02-11T05:20:05;97000.06;;;-2.51
40045;BMP280;25735;48.122;11.422;2023-02-11T05:22:31;96977.94;;;-2.54
40045;BMP280;25735;48.122;11.422;2023-02-11T05:24:56;96993.88;;;-2.39
40045;BMP280;25735;48.122;11.422;2023-02-11T05:27:21;96985.19;;;-2.36
40045;BMP280;25735;48.122;11.422;2023-02-11T05:29:46;96985.03;;;-2.43
40045;BMP280;25735;48.122;11.422;2023-02-11T05:32:12;96979.22;;;-2.49
40045;BMP280;25735;48.122;11.422;2023-02-11T05:34:37;96977.38;;;-2.45
40045;BMP280;25735;48.122;11.422;2023-02-11T05:37:02;96981.72;;;-2.18
40045;BMP280;25735;48.122;11.422;2023-02-11T05:39:27;96980.13;;;-2.04
40045;BMP280;25735;48.122;11.422;2023-02-11T05:41:53;96976.34;;;-1.81
40045;BMP280;25735;48.122;11.422;2023-02-11T05:44:18;96978.66;;;-1.79
40045;BMP280;25735;48.122;11.422;2023-02-11T05:46:43;96980.22;;;-1.78
40045;BMP280;25735;48.122;11.422;2023-02-11T05:49:08;96972.44;;;-1.87
40045;BMP280;25735;48.122;11.422;2023-02-11T05:51:34;96965.69;;;-1.81
40045;BMP280;25735;48.122;11.422;2023-02-11T05:53:59;96969.25;;;-1.73
40045;BMP280;25735;48.122;11.422;2023-02-11T05:56:24;96952.31;;;-1.62
40045;BMP280;25735;48.122;11.422;2023-02-11T05:58:49;96962.84;;;-1.69
40045;BMP280;25735;48.122;11.422;2023-02-11T06:01:16;96954.72;;;-1.76
40045;BMP280;25735;48.122;11.422;2023-02-11T06:03:41;96953.78;;;-1.65
40045;BMP280;25735;48.122;11.422;2023-02-11T06:06:11;96938.56;;;-1.64
40045;BMP280;25735;48.122;11.422;2023-02-11T06:08:36;96945.44;;;-1.63
40045;BMP280;25735;48.122;11.422;2023-02-11T06:11:01;96947.09;;;-1.55
40045;BMP280;25735;48.122;11.422;2023-02-11T06:13:27;96946.91;;;-1.43
40045;BMP280;25735;48.122;11.422;2023-02-11T06:15:57;96942.09;;;-1.35
40045;BMP280;25735;48.122;11.422;2023-02-11T06:18:22;96942.69;;;-1.22
40045;BMP280;25735;48.122;11.422;2023-02-11T06:20:47;96944.72;;;-1.13
40045;BMP280;25735;48.122;11.422;2023-02-11T06:23:13;96950.47;;;-1.11
40045;BMP280;25735;48.122;11.422;2023-02-11T06:25:38;96960.13;;;-1.03
40045;BMP280;25735;48.122;11.422;2023-02-11T06:28:03;96946.41;;;-1.01
40045;BMP280;25735;48.122;11.422;2023-02-11T06:30:28;96954.84;;;-0.99
40045;BMP280;25735;48.122;11.422;2023-02-11T06:32:54;96951.09;;;-0.95
40045;BMP280;25735;48.122;11.422;2023-02-11T06:35:19;96958.50;;;-0.82
40045;BMP280;25735;48.122;11.422;2023-02-11T06:37:44;96960.69;;;-0.65
40045;BMP280;25735;48.122;11.422;2023-02-11T06:40:11;96961.88;;;-0.59
40045;BMP280;25735;48.122;11.422;2023-02-11T06:42:36;96957.69;;;-0.60
40045;BMP280;25735;48.122;11.422;2023-02-11T06:45:03;96957.88;;;-0.72
40045;BMP280;25735;48.122;11.422;2023-02-11T06:47:30;96955.34;;;-0.65
40045;BMP280;25735;48.122;11.422;2023-02-11T06:49:55;96969.63;;;-0.51
40045;BMP280;25735;48.122;11.422;2023-02-11T06:52:20;96949.84;;;-0.46
40045;BMP280;25735;48.122;11.422;2023-02-11T06:54:45;96962.56;;;-0.36
40045;BMP280;25735;48.122;11.422;2023-02-11T06:57:11;96954.84;;;-0.45
40045;BMP280;25735;48.122;11.422;2023-02-11T06:59:36;96956.38;;;-0.44
40045;BMP280;25735;48.122;11.422;2023-02-11T07:02:01;96961.75;;;-0.40
40045;BMP280;25735;48.122;11.422;2023-02-11T07:04:26;96960.66;;;-0.36
40045;BMP280;25735;48.122;11.422;2023-02-11T07:06:52;96966.56;;;-0.20
40045;BMP280;25735;48.122;11.422;2023-02-11T07:09:17;96965.41;;;-0.23
40045;BMP280;25735;48.122;11.422;2023-02-11T07:11:42;96948.41;;;-0.08
40045;BMP280;25735;48.122;11.422;2023-02-11T07:14:09;96963.28;;;-0.07
40045;BMP280;25735;48.122;11.422;2023-02-11T07:16:34;96973.44;;;0.10
40045;BMP280;25735;48.122;11.422;2023-02-11T07:18:59;96987.25;;;0.19
40045;BMP280;25735;48.122;11.422;2023-02-11T07:21:25;96981.59;;;0.24
40045;BMP280;25735;48.122;11.422;2023-02-11T07:23:50;96973.13;;;0.18
40045;BMP280;25735;48.122;11.422;2023-02-11T07:26:18;96970.69;;;0.06
40045;BMP280;25735;48.122;11.422;2023-02-11T07:28:44;96965.25;;;-0.01
40045;BMP280;25735;48.122;11.422;2023-02-11T07:31:18;96963.09;;;0.08
40045;BMP280;25735;48.122;11.422;2023-02-11T07:33:44;96946.25;;;0.04
40045;BMP280;25735;48.122;11.422;2023-02-11T07:36:11;96950.91;;;0.11
40045;BMP280;25735;48.122;11.422;2023-02-11T07:38:37;96943.22;;;0.09
40045;BMP280;25735;48.122;11.422;2023-02-11T07:41:07;96953.25;;;0.19
40045;BMP280;25735;48.122;11.422;2023-02-11T07:43:34;96950.28;;;0.28
40045;BMP280;25735;48.122;11.422;2023-02-11T07:46:05;96949.31;;;0.42
40045;BMP280;25735;48.122;11.422;2023-02-11T07:48:31;96957.38;;;0.46
40045;BMP280;25735;48.122;11.422;2023-02-11T07:51:07;96953.66;;;0.60
40045;BMP280;25735;48.122;11.422;2023-02-11T07:53:33;96951.41;;;0.66
40045;BMP280;25735;48.122;11.422;2023-02-11T07:55:58;96957.47;;;0.59
40045;BMP280;25735;48.122;11.422;2023-02-11T07:58:23;96962.13;;;0.66
40045;BMP280;25735;48.122;11.422;2023-02-11T08:00:49;96951.03;;;0.67
40045;BMP280;25735;48.122;11.422;2023-02-11T08:03:14;96954.44;;;0.64
40045;BMP280;25735;48.122;11.422;2023-02-11T08:05:39;96943.97;;;0.92
40045;BMP280;25735;48.122;11.422;2023-02-11T08:08:04;96933.06;;;0.68
40045;BMP280;25735;48.122;11.422;2023-02-11T08:10:29;96919.28;;;0.62
40045;BMP280;25735;48.122;11.422;2023-02-11T08:12:55;96912.88;;;0.74
40045;BMP280;25735;48.122;11.422;2023-02-11T08:15:20;96914.84;;;0.83
40045;BMP280;25735;48.122;11.422;2023-02-11T08:17:45;96929.13;;;1.01
40045;BMP280;25735;48.122;11.422;2023-02-11T08:20:11;96931.53;;;1.23
40045;BMP280;25735;48.122;11.422;2023-02-11T08:22:36;96943.13;;;1.38
40045;BMP280;25735;48.122;11.422;2023-02-11T08:25:01;96938.94;;;1.43
40045;BMP280;25735;48.122;11.422;2023-02-11T08:27:27;96937.97;;;1.86
40045;BMP280;25735;48.122;11.422;2023-02-11T08:29:53;96926.50;;;1.82
40045;BMP280;25735;48.122;11.422;2023-02-11T08:32:19;96932.22;;;1.84
40045;BMP280;25735;48.122;11.422;2023-02-11T08:34:44;96925.81;;;2.16
40045;BMP280;25735;48.122;11.422;2023-02-11T08:37:10;96927.72;;;2.15
40045;BMP280;25735;48.122;11.422;2023-02-11T08:39:35;96929.25;;;2.23
40045;BMP280;25735;48.122;11.422;2023-02-11T08:42:00;96936.13;;;2.14
40045;BMP280;25735;48.122;11.422;2023-02-11T08:44:26;96925.03;;;2.12
40045;BMP280;25735;48.122;11.422;2023-02-11T08:46:51;96949.91;;;2.05
40045;BMP280;25735;48.122;11.422;2023-02-11T08:49:16;96937.69;;;2.18
40045;BMP280;25735;48.122;11.422;2023-02-11T08:51:42;96951.53;;;2.34
40045;BMP280;25735;48.122;11.422;2023-02-11T08:54:08;96948.47;;;2.39
40045;BMP280;25735;48.122;11.422;2023-02-11T08:56:35;96930.06;;;2.34
40045;BMP280;25735;48.122;11.422;2023-02-11T08:59:00;96940.41;;;2.39
40045;BMP280;25735;48.122;11.422;2023-02-11T09:01:30;96945.78;;;2.52
40045;BMP280;25735;48.122;11.422;2023-02-11T09:03:56;96927.78;;;2.77
40045;BMP280;25735;48.122;11.422;2023-02-11T09:06:23;96933.91;;;2.47
40045;BMP280;25735;48.122;11.422;2023-02-11T09:08:51;96924.72;;;2.41
40045;BMP280;25735;48.122;11.422;2023-02-11T09:11:20;96923.91;;;2.37
40045;BMP280;25735;48.122;11.422;2023-02-11T09:13:45;96917.03;;;2.29
40045;BMP280;25735;48.122;11.422;2023-02-11T09:16:23;96932.38;;;2.56
40045;BMP280;25735;48.122;11.422;2023-02-11T09:18:49;96922.78;;;2.52
40045;BMP280;25735;48.122;11.422;2023-02-11T09:21:16;96920.13;;;2.62
40045;BMP280;25735;48.122;11.422;2023-02-11T09:23:42;96921.63;;;3.01
40045;BMP280;25735;48.122;11.422;2023-02-11T09:26:12;96917.38;;;3.20
40045;BMP280;25735;48.122;11.422;2023-02-11T09:28:38;96918.19;;;2.90
40045;BMP280;25735;48.122;11.422;2023-02-11T09:31:05;96930.88;;;2.93
40045;BMP280;25735;48.122;11.422;2023-02-11T09:33:31;96922.41;;;2.87
40045;BMP280;25735;48.122;11.422;2023-02-11T09:36:00;96932.00;;;2.85
40045;BMP280;25735;48.122;11.422;2023-02-11T09:38:25;96935.84;;;2.80
40045;BMP280;25735;48.122;11.422;2023-02-11T09:40:51;96941.97;;;3.02
40045;BMP280;25735;48.122;11.422;2023-02-11T09:43:21;96937.78;;;2.83
40045;BMP280;25735;48.122;11.422;2023-02-11T09:45:46;96941.19;;;3.11
40045;BMP280;25735;48.122;11.422;2023-02-11T09:50:43;96951.81;;;3.70
40045;BMP280;25735;48.122;11.422;2023-02-11T09:53:23;96928.84;;;4.33
40045;BMP280;25735;48.122;11.422;2023-02-11T09:55:52;96935.25;;;4.52
40045;BMP280;25735;48.122;11.422;2023-02-11T09:58:30;96927.00;;;4.23
40045;BMP280;25735;48.122;11.422;2023-02-11T10:01:26;96926.47;;;4.45
40045;BMP280;25735;48.122;11.422;2023-02-11T10:06:34;96920.31;;;4.41
40045;BMP280;25735;48.122;11.422;2023-02-11T10:11:47;96906.78;;;4.55
40045;BMP280;25735;48.122;11.422;2023-02-11T10:16:54;96895.00;;;4.35
40045;BMP280;25735;48.122;11.422;2023-02-11T10:19:33;96882.63;;;4.48
40045;BMP280;25735;48.122;11.422;2023-02-11T10:22:18;96877.44;;;4.67
40045;BMP280;25735;48.122;11.422;2023-02-11T10:24:54;96883.19;;;4.73
40045;BMP280;25735;48.122;11.422;2023-02-11T10:27:27;96885.34;;;5.28
40045;BMP280;25735;48.122;11.422;2023-02-11T10:30:18;96890.59;;;4.62
40045;BMP280;25735;48.122;11.422;2023-02-11T10:33:03;96903.81;;;4.89
40045;BMP280;25735;48.122;11.422;2023-02-11T10:35:34;96900.69;;;5.70
40045;BMP280;25735;48.122;11.422;2023-02-11T10:38:00;96897.34;;;5.92
40045;BMP280;25735;48.122;11.422;2023-02-11T10:40:29;96893.22;;;5.85
40045;BMP280;25735;48.122;11.422;2023-02-11T10:42:59;96884.94;;;5.32
40045;BMP280;25735;48.122;11.422;2023-02-11T10:47:56;96896.06;;;5.71
40045;BMP280;25735;48.122;11.422;2023-02-11T10:50:27;96892.75;;;5.89
40045;BMP280;25735;48.122;11.422;2023-02-11T10:53:18;96870.88;;;6.10
40045;BMP280;25735;48.122;11.422;2023-02-11T10:55:51;96891.53;;;6.23
40045;BMP280;25735;48.122;11.422;2023-02-11T10:58:45;96873.50;;;6.17
40045;BMP280;25735;48.122;11.422;2023-02-11T11:01:17;96876.66;;;6.38
40045;BMP280;25735;48.122;11.422;2023-02-11T11:03:48;96881.63;;;6.43
40045;BMP280;25735;48.122;11.422;2023-02-11T11:06:14;96875.19;;;6.34
40045;BMP280;25735;48.122;11.422;2023-02-11T11:08:50;96878.31;;;6.55
40045;BMP280;25735;48.122;11.422;2023-02-11T11:11:23;96864.50;;;6.53
40045;BMP280;25735;48.122;11.422;2023-02-11T11:16:25;96862.56;;;6.27
40045;BMP280;25735;48.122;11.422;2023-02-11T11:19:13;96865.53;;;6.33
40045;BMP280;25735;48.122;11.422;2023-02-11T11:21:43;96869.47;;;6.02
40045;BMP280;25735;48.122;11.422;2023-02-11T11:24:17;96874.69;;;5.87
40045;BMP280;25735;48.122;11.422;2023-02-11T11:26:45;96867.47;;;5.77
40045;BMP280;25735;48.122;11.422;2023-02-11T11:29:37;96866.09;;;5.62
40045;BMP280;25735;48.122;11.422;2023-02-11T11:32:27;96863.53;;;5.85
40045;BMP280;25735;48.122;11.422;2023-02-11T11:34:55;96843.69;;;5.98
40045;BMP280;25735;48.122;11.422;2023-02-11T11:37:26;96847.63;;;6.19
40045;BMP280;25735;48.122;11.422;2023-02-11T11:42:38;96831.88;;;6.41
40045;BMP280;25735;48.122;11.422;2023-02-11T11:47:51;96842.97;;;6.95
40045;BMP280;25735;48.122;11.422;2023-02-11T11:58:17;96851.31;;;7.23
40045;BMP280;25735;48.122;11.422;2023-02-11T12:04:13;96860.25;;;6.97
40045;BMP280;25735;48.122;11.422;2023-02-11T12:10:19;96850.56;;;6.77
40045;BMP280;25735;48.122;11.422;2023-02-11T12:27:43;96836.41;;;7.91
40045;BMP280;25735;48.122;11.422;2023-02-11T12:35:46;96822.78;;;7.95
40045;BMP280;25735;48.122;11.422;2023-02-11T12:38:28;96806.91;;;7.97
40045;BMP280;25735;48.122;11.422;2023-02-11T12:41:08;96817.53;;;7.69
40045;BMP280;25735;48.122;11.422;2023-02-11T12:43:39;96810.16;;;7.73
40045;BMP280;25735;48.122;11.422;2023-02-11T12:49:17;96796.03;;;7.81
40045;BMP280;25735;48.122;11.422;2023-02-11T12:52:01;96789.38;;;8.01
40045;BMP280;25735;48.122;11.422;2023-02-11T12:54:37;96799.72;;;8.25
40045;BMP280;25735;48.122;11.422;2023-02-11T12:57:24;96796.81;;;8.16
40045;BMP280;25735;48.122;11.422;2023-02-11T13:02:41;96794.47;;;7.64
40045;BMP280;25735;48.122;11.422;2023-02-11T13:05:26;96786.03;;;7.78
40045;BMP280;25735;48.122;11.422;2023-02-11T13:08:00;96785.75;;;7.92
40045;BMP280;25735;48.122;11.422;2023-02-11T13:10:33;96785.56;;;7.83
40045;BMP280;25735;48.122;11.422;2023-02-11T13:13:01;96781.56;;;8.07
40045;BMP280;25735;48.122;11.422;2023-02-11T13:15:46;96779.81;;;9.63
40045;BMP280;25735;48.122;11.422;2023-02-11T13:23:35;96765.56;;;10.48
40045;BMP280;25735;48.122;11.422;2023-02-11T13:26:11;96759.16;;;10.18
40045;BMP280;25735;48.122;11.422;2023-02-11T13:29:08;96762.41;;;10.38
40045;BMP280;25735;48.122;11.422;2023-02-11T13:31:34;96752.22;;;11.21
40045;BMP280;25735;48.122;11.422;2023-02-11T13:33:59;96736.06;;;11.89
40045;BMP280;25735;48.122;11.422;2023-02-11T13:36:26;96751.69;;;12.75
40045;BMP280;25735;48.122;11.422;2023-02-11T13:39:01;96749.91;;;13.52
40045;BMP280;25735;48.122;11.422;2023-02-11T13:41:36;96747.94;;;13.44
40045;BMP280;25735;48.122;11.422;2023-02-11T13:44:16;96753.94;;;14.01
40045;BMP280;25735;48.122;11.422;2023-02-11T13:47:05;96744.97;;;12.67
40045;BMP280;25735;48.122;11.422;2023-02-11T13:52:00;96760.59;;;11.47
40045;BMP280;25735;48.122;11.422;2023-02-11T13:54:33;96763.41;;;10.19
40045;BMP280;25735;48.122;11.422;2023-02-11T13:59:45;96759.53;;;9.67
40045;BMP280;25735;48.122;11.422;2023-02-11T14:02:26;96766.09;;;9.42
40045;BMP280;25735;48.122;11.422;2023-02-11T14:16:16;96761.34;;;8.90
40045;BMP280;25735;48.122;11.422;2023-02-11T14:21:23;96769.66;;;8.83
40045;BMP280;25735;48.122;11.422;2023-02-11T14:29:09;96758.38;;;8.69
40045;BMP280;25735;48.122;11.422;2023-02-11T14:31:42;96758.16;;;8.47
40045;BMP280;25735;48.122;11.422;2023-02-11T14:34:34;96761.19;;;8.49
40045;BMP280;25735;48.122;11.422;2023-02-11T14:42:19;96765.75;;;8.21
40045;BMP280;25735;48.122;11.422;2023-02-11T14:44:48;96775.34;;;8.41
40045;BMP280;25735;48.122;11.422;2023-02-11T14:47:18;96769.69;;;8.51
40045;BMP280;25735;48.122;11.422;2023-02-11T14:49:45;96773.97;;;8.33
40045;BMP280;25735;48.122;11.422;2023-02-11T14:52:31;96755.09;;;8.14
40045;BMP280;25735;48.122;11.422;2023-02-11T14:55:29;96757.22;;;8.07
40045;BMP280;25735;48.122;11.422;2023-02-11T14:58:15;96772.56;;;7.94
40045;BMP280;25735;48.122;11.422;2023-02-11T15:03:36;96771.94;;;8.06
40045;BMP280;25735;48.122;11.422;2023-02-11T15:06:21;96778.16;;;8.03
40045;BMP280;25735;48.122;11.422;2023-02-11T15:08:50;96774.66;;;8.06
40045;BMP280;25735;48.122;11.422;2023-02-11T15:11:18;96777.09;;;8.16
40045;BMP280;25735;48.122;11.422;2023-02-11T15:13:44;96783.72;;;8.15
40045;BMP280;25735;48.122;11.422;2023-02-11T15:16:16;96781.19;;;8.05
40045;BMP280;25735;48.122;11.422;2023-02-11T15:18:47;96782.91;;;7.99
40045;BMP280;25735;48.122;11.422;2023-02-11T15:21:28;96776.19;;;8.22
40045;BMP280;25735;48.122;11.422;2023-02-11T15:23:56;96779.41;;;8.33
40045;BMP280;25735;48.122;11.422;2023-02-11T15:26:22;96774.56;;;8.41
40045;BMP280;25735;48.122;11.422;2023-02-11T15:28:48;96768.91;;;8.51
40045;BMP280;25735;48.122;11.422;2023-02-11T15:31:17;96767.38;;;8.50
40045;BMP280;25735;48.122;11.422;2023-02-11T15:33:42;96773.56;;;8.50
40045;BMP280;25735;48.122;11.422;2023-02-11T15:36:10;96769.00;;;8.47
40045;BMP280;25735;48.122;11.422;2023-02-11T15:38:35;96775.75;;;8.24
40045;BMP280;25735;48.122;11.422;2023-02-11T15:41:03;96773.91;;;7.86
40045;BMP280;25735;48.122;11.422;2023-02-11T15:43:46;96786.88;;;7.75
40045;BMP280;25735;48.122;11.422;2023-02-11T15:46:18;96792.00;;;7.89
40045;BMP280;25735;48.122;11.422;2023-02-11T15:48:44;96786.25;;;7.87
40045;BMP280;25735;48.122;11.422;2023-02-11T15:51:25;96789.09;;;7.80
40045;BMP280;25735;48.122;11.422;2023-02-11T15:54:25;96805.63;;;7.66
40045;BMP280;25735;48.122;11.422;2023-02-11T15:56:52;96811.75;;;7.32
40045;BMP280;25735;48.122;11.422;2023-02-11T15:59:31;96805.91;;;7.33
40045;BMP280;25735;48.122;11.422;2023-02-11T16:02:14;96812.28;;;7.24
40045;BMP280;25735;48.122;11.422;2023-02-11T16:04:48;96808.81;;;7.23
40045;BMP280;25735;48.122;11.422;2023-02-11T16:10:02;96808.16;;;6.97
40045;BMP280;25735;48.122;11.422;2023-02-11T16:12:27;96811.13;;;6.83
40045;BMP280;25735;48.122;11.422;2023-02-11T16:14:53;96808.41;;;6.83
40045;BMP280;25735;48.122;11.422;2023-02-11T16:17:24;96817.34;;;6.80
40045;BMP280;25735;48.122;11.422;2023-02-11T16:19:51;96816.41;;;6.67
40045;BMP280;25735;48.122;11.422;2023-02-11T16:22:22;96813.13;;;6.56